createdAt,value
2018-02-05T00:00:06.994Z,11.80
2018-02-05T00:02:38.608Z,13.73
2018-02-05T00:05:10.922Z,10.77
2018-02-05T00:07:42.551Z,13.73
2018-02-05T00:10:14.948Z,13.17
2018-02-05T00:12:46.020Z,14.70
2018-02-05T00:15:18.307Z,15.00
2018-02-05T00:17:49.504Z,11.57
2018-02-05T00:20:19.744Z,12.40
2018-02-05T00:22:49.803Z,14.50
2018-02-05T00:25:20.179Z,16.00
2018-02-05T00:27:51.182Z,11.90
2018-02-05T00:30:23.172Z,12.87
2018-02-05T00:32:53.127Z,15.73
2018-02-05T00:35:23.903Z,13.00
2018-02-05T00:37:53.643Z,16.43
2018-02-05T00:40:25.636Z,16.60
2018-02-05T00:42:55.691Z,14.70
2018-02-05T00:45:26.226Z,13.67
2018-02-05T00:47:56.790Z,14.60
2018-02-05T00:50:27.122Z,14.93
2018-02-05T00:52:57.345Z,17.47
2018-02-05T00:55:27.247Z,17.30
2018-02-05T00:57:56.812Z,18.93
2018-02-05T01:00:26.782Z,15.70
2018-02-05T01:02:56.490Z,13.50
2018-02-05T01:05:26.220Z,15.40
2018-02-05T01:07:56.541Z,16.13
2018-02-05T01:10:27.474Z,15.23
2018-02-05T01:12:57.059Z,19.93
2018-02-05T01:15:27.740Z,19.37
2018-02-05T01:17:59.382Z,18.17
2018-02-05T01:20:29.395Z,16.80
2018-02-05T01:23:00.230Z,17.07
2018-02-05T01:25:30.920Z,14.80
2018-02-05T01:28:00.987Z,16.50
2018-02-05T01:30:31.378Z,15.40
2018-02-05T01:33:01.956Z,16.03
2018-02-05T01:35:31.410Z,14.70
2018-02-05T01:38:02.274Z,14.93
2018-02-05T01:40:32.015Z,14.73
2018-02-05T01:43:01.611Z,18.47
2018-02-05T01:45:31.355Z,16.00
2018-02-05T01:48:01.568Z,17.30
2018-02-05T01:50:31.448Z,13.57
2018-02-05T01:53:02.146Z,14.77
2018-02-05T01:55:32.195Z,15.77
2018-02-05T01:58:02.222Z,11.10
2018-02-05T02:00:32.455Z,14.50
2018-02-05T02:03:02.431Z,13.10
2018-02-05T02:05:31.881Z,16.47
2018-02-05T02:08:01.825Z,13.87
2018-02-05T02:10:31.930Z,16.57
2018-02-05T02:13:02.018Z,11.57
2018-02-05T02:15:32.234Z,15.03
2018-02-05T02:18:02.665Z,19.53
2018-02-05T02:20:32.436Z,18.27
2018-02-05T02:23:01.883Z,20.43
2018-02-05T02:25:31.511Z,18.13
2018-02-05T02:28:01.115Z,15.70
2018-02-05T02:30:30.557Z,15.30
2018-02-05T02:33:00.332Z,17.20
2018-02-05T02:35:31.244Z,13.40
2018-02-05T02:38:01.611Z,13.33
2018-02-05T02:40:31.495Z,13.87
2018-02-05T02:43:01.553Z,14.93
2018-02-05T02:45:31.260Z,15.80
2018-02-05T02:48:01.288Z,17.70
2018-02-05T02:50:31.336Z,16.20
2018-02-05T02:53:01.276Z,17.33
2018-02-05T02:55:31.346Z,15.93
2018-02-05T02:58:01.250Z,16.27
2018-02-05T03:00:30.813Z,19.70
2018-02-05T03:03:01.287Z,14.40
2018-02-05T03:05:31.342Z,15.43
2018-02-05T03:08:01.462Z,16.37
2018-02-05T03:10:30.996Z,15.00
2018-02-05T03:13:00.595Z,13.57
2018-02-05T03:15:30.326Z,18.00
2018-02-05T03:17:59.780Z,13.73
2018-02-05T03:20:29.537Z,16.50
2018-02-05T03:22:59.270Z,17.00
2018-02-05T03:25:28.866Z,16.20
2018-02-05T03:27:58.608Z,14.70
2018-02-05T03:30:29.161Z,15.33
2018-02-05T03:32:59.565Z,15.07
2018-02-05T03:35:29.183Z,18.47
2018-02-05T03:37:59.291Z,15.20
2018-02-05T03:40:28.895Z,15.97
2018-02-05T03:42:58.823Z,12.33
2018-02-05T03:45:29.361Z,18.90
2018-02-05T03:47:59.912Z,14.93
2018-02-05T03:50:30.722Z,17.80
2018-02-05T03:53:01.053Z,16.43
2018-02-05T03:55:30.298Z,16.07
2018-02-05T03:58:00.813Z,14.13
2018-02-05T04:00:30.830Z,16.53
2018-02-05T04:03:00.867Z,14.90
2018-02-05T04:05:31.706Z,16.07
2018-02-05T04:08:02.718Z,17.10
2018-02-05T04:10:33.263Z,16.10
2018-02-05T04:13:02.966Z,13.53
2018-02-05T04:15:33.960Z,14.50
2018-02-05T04:18:03.946Z,16.03
2018-02-05T04:20:34.496Z,17.30
2018-02-05T04:23:04.903Z,13.73
2018-02-05T04:25:36.915Z,12.17
2018-02-05T04:28:06.878Z,16.60
2018-02-05T04:30:36.650Z,15.37
2018-02-05T04:33:06.294Z,14.87
2018-02-05T04:35:36.437Z,14.00
2018-02-05T04:38:06.203Z,13.60
2018-02-05T04:40:36.603Z,16.17
2018-02-05T04:43:06.974Z,13.77
2018-02-05T04:45:38.155Z,12.90
2018-02-05T04:48:08.211Z,15.77
2018-02-05T04:50:40.394Z,18.67
2018-02-05T04:53:10.203Z,12.80
2018-02-05T04:55:40.831Z,14.60
2018-02-05T04:58:11.406Z,13.90
2018-02-05T05:00:42.105Z,16.27
2018-02-05T05:03:11.600Z,17.20
2018-02-05T05:05:41.002Z,14.63
2018-02-05T05:08:10.608Z,13.73
2018-02-05T05:10:40.371Z,14.23
2018-02-05T05:13:09.815Z,14.90
2018-02-05T05:15:40.552Z,14.20
2018-02-05T05:18:10.559Z,15.83
2018-02-05T05:20:40.887Z,16.33
2018-02-05T05:23:10.274Z,15.83
2018-02-05T05:25:39.558Z,17.07
2018-02-05T05:28:09.009Z,14.57
2018-02-05T05:30:38.640Z,13.60
2018-02-05T05:33:08.449Z,17.07
2018-02-05T05:35:37.756Z,17.27
2018-02-05T05:38:07.241Z,14.83
2018-02-05T05:40:36.766Z,17.33
2018-02-05T05:43:06.822Z,16.80
2018-02-05T05:45:36.287Z,14.47
2018-02-05T05:48:06.237Z,17.67
2018-02-05T05:50:35.937Z,16.03
2018-02-05T05:53:06.147Z,15.70
2018-02-05T05:55:36.056Z,14.30
2018-02-05T05:58:05.384Z,15.40
2018-02-05T06:00:34.874Z,19.57
2018-02-05T06:03:04.786Z,15.03
2018-02-05T06:05:34.767Z,16.43
2018-02-05T06:08:04.234Z,16.43
2018-02-05T06:10:34.236Z,16.30
2018-02-05T06:13:04.179Z,15.70
2018-02-05T06:15:33.788Z,17.73
2018-02-05T06:18:03.214Z,15.77
2018-02-05T06:20:32.865Z,13.93
2018-02-05T06:23:02.205Z,17.00
2018-02-05T06:25:32.128Z,14.93
2018-02-05T06:28:01.749Z,18.30
2018-02-05T06:30:31.346Z,16.83
2018-02-05T06:33:00.955Z,18.93
2018-02-05T06:35:31.746Z,19.67
2018-02-05T06:38:01.287Z,16.30
2018-02-05T06:40:31.104Z,17.53
2018-02-05T06:43:01.061Z,16.30
2018-02-05T06:45:30.563Z,21.60
2018-02-05T06:48:00.695Z,16.87
2018-02-05T06:50:42.230Z,15.23
2018-02-05T06:53:23.292Z,12.47
2018-02-05T06:55:52.786Z,16.90
2018-02-05T06:58:22.237Z,14.60
2018-02-05T07:00:51.762Z,16.87
2018-02-05T07:03:23.759Z,18.87
2018-02-05T07:05:54.196Z,16.30
2018-02-05T07:08:25.762Z,11.53
2018-02-05T07:10:55.795Z,16.00
2018-02-05T07:13:25.230Z,14.57
2018-02-05T07:15:55.001Z,15.10
2018-02-05T07:18:25.589Z,13.93
2018-02-05T07:20:55.274Z,16.93
2018-02-05T07:23:24.940Z,14.57
2018-02-05T07:25:55.018Z,16.30
2018-02-05T07:28:24.796Z,12.87
2018-02-05T07:30:54.124Z,17.70
2018-02-05T07:33:23.957Z,19.87
2018-02-05T07:35:53.686Z,17.07
2018-02-05T07:38:23.611Z,16.87
2018-02-05T07:40:53.098Z,18.73
2018-02-05T07:43:22.717Z,15.47
2018-02-05T07:45:52.313Z,13.20
2018-02-05T07:48:21.624Z,16.97
2018-02-05T07:50:50.912Z,20.93
2018-02-05T07:53:20.319Z,16.83
2018-02-05T07:55:50.220Z,16.67
2018-02-05T07:58:21.082Z,18.30
2018-02-05T08:00:51.031Z,16.63
2018-02-05T08:03:21.893Z,18.80
2018-02-05T08:05:51.672Z,20.27
2018-02-05T08:08:20.967Z,17.70
2018-02-05T08:10:50.257Z,18.20
2018-02-05T08:13:20.186Z,15.47
2018-02-05T08:15:50.156Z,17.50
2018-02-05T08:18:19.509Z,16.67
2018-02-05T08:20:49.171Z,20.30
2018-02-05T08:23:18.761Z,15.83
2018-02-05T08:25:48.198Z,16.90
2018-02-05T08:28:18.113Z,21.17
2018-02-05T08:30:47.545Z,18.80
2018-02-05T08:33:17.275Z,18.63
2018-02-05T08:35:46.584Z,19.53
2018-02-05T08:38:16.526Z,21.10
2018-02-05T08:40:45.828Z,14.93
2018-02-05T08:43:15.095Z,18.63
2018-02-05T08:45:44.682Z,13.50
2018-02-05T08:48:14.133Z,18.97
2018-02-05T08:50:43.553Z,17.50
2018-02-05T08:53:13.111Z,17.23
2018-02-05T08:55:43.179Z,18.20
2018-02-05T08:58:12.565Z,22.20
2018-02-05T09:00:42.488Z,15.17
2018-02-05T09:03:12.098Z,23.33
2018-02-05T09:05:41.789Z,17.47
2018-02-05T09:08:11.598Z,19.23
2018-02-05T09:10:41.230Z,17.30
2018-02-05T09:13:10.830Z,17.00
2018-02-05T09:15:40.864Z,18.40
2018-02-05T09:18:10.623Z,15.40
2018-02-05T09:20:40.055Z,19.70
2018-02-05T09:23:10.931Z,17.73
2018-02-05T09:25:40.714Z,19.37
2018-02-05T09:28:10.658Z,19.50
2018-02-05T09:30:40.266Z,14.33
2018-02-05T09:33:11.192Z,19.70
2018-02-05T09:35:41.012Z,16.20
2018-02-05T09:38:10.998Z,13.33
2018-02-05T09:40:40.933Z,17.17
2018-02-05T09:43:10.168Z,16.60
2018-02-05T09:45:39.570Z,17.70
2018-02-05T09:48:10.954Z,16.47
2018-02-05T09:50:40.216Z,17.30
2018-02-05T09:53:09.470Z,18.20
2018-02-05T09:55:39.537Z,16.07
2018-02-05T09:58:10.692Z,16.33
2018-02-05T10:00:40.490Z,18.17
2018-02-05T10:03:09.973Z,19.27
2018-02-05T10:05:39.432Z,14.83
2018-02-05T10:08:08.714Z,23.17
2018-02-05T10:10:38.303Z,15.93
2018-02-05T10:13:08.053Z,13.60
2018-02-05T10:15:37.521Z,19.50
2018-02-05T10:18:07.493Z,17.20
2018-02-05T10:20:37.211Z,15.33
2018-02-05T10:23:07.046Z,15.80
2018-02-05T10:25:37.481Z,13.83
2018-02-05T10:28:07.255Z,14.43
2018-02-05T10:30:36.543Z,15.90
2018-02-05T10:33:06.329Z,18.47
2018-02-05T10:35:36.241Z,15.07
2018-02-05T10:38:06.307Z,17.33
2018-02-05T10:40:35.927Z,15.70
2018-02-05T10:43:05.700Z,15.83
2018-02-05T10:45:35.328Z,16.67
2018-02-05T10:48:05.776Z,17.30
2018-02-05T10:50:35.523Z,15.90
2018-02-05T10:53:04.772Z,16.50
2018-02-05T10:55:34.681Z,18.13
2018-02-05T10:58:06.677Z,13.30
2018-02-05T11:00:37.882Z,14.43
2018-02-05T11:03:08.145Z,17.33
2018-02-05T11:05:39.197Z,16.60
2018-02-05T11:08:09.095Z,17.23
2018-02-05T11:10:39.192Z,16.00
2018-02-05T11:13:08.875Z,14.73
2018-02-05T11:15:38.565Z,18.47
2018-02-05T11:18:09.413Z,15.57
2018-02-05T11:20:47.140Z,15.60
2018-02-05T11:23:18.606Z,14.10
2018-02-05T11:25:48.981Z,16.63
2018-02-05T11:28:19.386Z,13.77
2018-02-05T11:30:48.833Z,13.37
2018-02-05T11:33:19.629Z,16.47
2018-02-05T11:35:49.312Z,13.83
2018-02-05T11:38:18.776Z,14.07
2018-02-05T11:40:48.569Z,18.50
2018-02-05T11:43:18.686Z,13.80
2018-02-05T11:45:48.292Z,16.40
2018-02-05T11:48:18.045Z,18.50
2018-02-05T11:50:52.092Z,13.27
2018-02-05T11:53:21.828Z,15.87
2018-02-05T11:55:52.505Z,14.83
2018-02-05T11:58:22.215Z,17.33
2018-02-05T12:00:51.629Z,13.57
2018-02-05T12:03:21.147Z,12.57
2018-02-05T12:05:51.644Z,15.20
2018-02-05T12:08:21.662Z,14.53
2018-02-05T12:10:50.993Z,14.70
2018-02-05T12:13:20.275Z,19.37
2018-02-05T12:15:49.571Z,15.03
2018-02-05T12:18:19.819Z,11.80
2018-02-05T12:20:50.372Z,13.43
2018-02-05T12:23:19.824Z,13.73
2018-02-05T12:25:49.137Z,12.97
2018-02-05T12:28:18.884Z,11.00
2018-02-05T12:30:48.326Z,12.33
2018-02-05T12:33:17.944Z,14.80
2018-02-05T12:35:47.281Z,11.40
2018-02-05T12:38:16.936Z,12.10
2018-02-05T12:40:46.451Z,12.63
2018-02-05T12:43:15.999Z,12.80
2018-02-05T12:45:45.408Z,11.10
2018-02-05T12:48:14.802Z,10.53
2018-02-05T12:50:44.661Z,10.73
2018-02-05T12:53:14.332Z,16.07
2018-02-05T12:55:44.338Z,12.30
2018-02-05T12:58:14.021Z,12.03
2018-02-05T13:00:43.469Z,12.90
2018-02-05T13:03:18.918Z,10.23
2018-02-05T13:06:03.947Z,13.77
2018-02-05T13:08:33.417Z,12.30
2018-02-05T13:11:02.757Z,13.27
2018-02-05T13:13:32.435Z,12.50
2018-02-05T13:16:02.102Z,11.20
2018-02-05T13:18:31.749Z,10.90
2018-02-05T13:21:01.198Z,11.20
2018-02-05T13:23:30.838Z,10.10
2018-02-05T13:26:00.289Z,7.93
2018-02-05T13:28:29.603Z,7.93
2018-02-05T13:30:59.687Z,9.10
2018-02-05T13:33:29.981Z,9.27
2018-02-05T13:35:59.777Z,8.37
2018-02-05T13:38:29.244Z,15.27
2018-02-05T13:40:58.849Z,8.70
2018-02-05T13:43:28.143Z,11.30
2018-02-05T13:45:57.711Z,10.97
2018-02-05T13:48:27.995Z,10.03
2018-02-05T13:50:57.604Z,13.00
2018-02-05T13:53:27.064Z,12.50
2018-02-05T13:55:56.354Z,7.10
2018-02-05T13:58:25.652Z,5.30
2018-02-05T14:00:55.237Z,7.03
2018-02-05T14:03:24.467Z,8.90
2018-02-05T14:05:53.919Z,9.00
2018-02-05T14:08:23.838Z,9.17
2018-02-05T14:10:54.249Z,9.60
2018-02-05T14:13:23.715Z,7.77
2018-02-05T14:15:53.012Z,5.57
2018-02-05T14:18:22.290Z,6.87
2018-02-05T14:20:51.627Z,5.90
2018-02-05T14:23:21.076Z,6.40
2018-02-05T14:25:51.366Z,6.20
2018-02-05T14:28:21.504Z,6.00
2018-02-05T14:30:51.448Z,4.13
2018-02-05T14:33:21.553Z,9.37
2018-02-05T14:35:53.431Z,5.20
2018-02-05T14:38:23.575Z,5.70
2018-02-05T14:40:55.097Z,5.23
2018-02-05T14:43:25.196Z,4.90
2018-02-05T14:45:54.716Z,4.90
2018-02-05T14:48:24.070Z,10.50
2018-02-05T14:50:53.576Z,12.70
2018-02-05T14:53:23.190Z,5.50
2018-02-05T14:55:52.774Z,5.77
2018-02-05T14:58:22.088Z,8.27
2018-02-05T15:00:51.768Z,5.77
2018-02-05T15:03:21.245Z,6.70
2018-02-05T15:05:50.913Z,6.83
2018-02-05T15:08:20.924Z,5.80
2018-02-05T15:10:50.662Z,19.70
2018-02-05T15:13:20.577Z,10.20
2018-02-05T15:15:50.313Z,10.63
2018-02-05T15:18:19.549Z,12.23
2018-02-05T15:20:49.143Z,9.60
2018-02-05T15:23:18.755Z,14.20
2018-02-05T15:25:48.160Z,12.57
2018-02-05T15:28:17.737Z,12.00
2018-02-05T15:30:47.014Z,12.07
2018-02-05T15:33:16.632Z,13.27
2018-02-05T15:35:46.271Z,15.43
2018-02-05T15:38:15.564Z,14.20
2018-02-05T15:40:45.384Z,12.43
2018-02-05T15:43:14.734Z,11.57
2018-02-05T15:45:44.550Z,15.23
2018-02-05T15:48:14.042Z,11.50
2018-02-05T15:50:43.368Z,13.00
2018-02-05T15:53:13.031Z,14.80
2018-02-05T15:55:42.547Z,16.43
2018-02-05T15:58:12.025Z,10.93
2018-02-05T16:00:41.967Z,13.90
2018-02-05T16:03:11.254Z,12.70
2018-02-05T16:05:40.778Z,12.90
2018-02-05T16:08:10.355Z,13.87
2018-02-05T16:10:40.464Z,15.67
2018-02-05T16:13:10.096Z,14.43
2018-02-05T16:15:40.037Z,15.90
2018-02-05T16:18:10.308Z,13.57
2018-02-05T16:20:39.938Z,14.83
2018-02-05T16:23:09.746Z,15.23
2018-02-05T16:25:39.256Z,14.27
2018-02-05T16:28:08.912Z,10.97
2018-02-05T16:30:38.734Z,15.97
2018-02-05T16:33:08.072Z,14.90
2018-02-05T16:35:38.187Z,18.13
2018-02-05T16:38:07.671Z,14.80
2018-02-05T16:40:37.320Z,14.50
2018-02-05T16:43:07.018Z,13.53
2018-02-05T16:45:36.725Z,14.93
2018-02-05T16:48:05.991Z,13.47
2018-02-05T16:50:35.255Z,13.10
2018-02-05T16:53:05.062Z,10.73
2018-02-05T16:55:34.430Z,12.77
2018-02-05T16:58:04.211Z,11.40
2018-02-05T17:00:34.178Z,12.97
2018-02-05T17:03:03.824Z,12.10
2018-02-05T17:05:33.324Z,12.07
2018-02-05T17:08:02.684Z,14.33
2018-02-05T17:10:32.255Z,12.13
2018-02-05T17:13:02.711Z,24.83
2018-02-05T17:15:32.214Z,11.37
2018-02-05T17:18:01.921Z,13.60
2018-02-05T17:20:32.063Z,12.20
2018-02-05T17:23:01.398Z,14.43
2018-02-05T17:25:30.790Z,13.50
2018-02-05T17:28:00.349Z,12.57
2018-02-05T17:30:30.387Z,15.73
2018-02-05T17:33:00.848Z,12.73
2018-02-05T17:35:30.349Z,12.80
2018-02-05T17:38:00.229Z,28.60
2018-02-05T17:40:30.005Z,14.03
2018-02-05T17:43:00.259Z,12.60
2018-02-05T17:45:30.030Z,14.00
2018-02-05T17:47:59.625Z,13.40
2018-02-05T17:50:29.208Z,14.63
2018-02-05T17:52:58.938Z,14.27
2018-02-05T17:55:28.510Z,11.10
2018-02-05T17:57:58.255Z,11.50
2018-02-05T18:00:27.974Z,14.80
2018-02-05T18:02:57.398Z,12.03
2018-02-05T18:05:27.118Z,12.43
2018-02-05T18:07:56.984Z,11.20
2018-02-05T18:10:26.312Z,9.80
2018-02-05T18:12:56.112Z,13.23
2018-02-05T18:15:26.008Z,9.80
2018-02-05T18:17:56.476Z,8.97
2018-02-05T18:20:25.972Z,10.83
2018-02-05T18:22:55.904Z,13.77
2018-02-05T18:25:25.660Z,12.73
2018-02-05T18:27:54.921Z,13.30
2018-02-05T18:30:24.353Z,12.97
2018-02-05T18:32:53.956Z,10.70
2018-02-05T18:35:23.698Z,8.83
2018-02-05T18:37:52.960Z,9.30
2018-02-05T18:40:22.874Z,13.63
2018-02-05T18:42:52.438Z,10.30
2018-02-05T18:45:22.475Z,10.63
2018-02-05T18:47:51.959Z,11.60
2018-02-05T18:50:22.190Z,13.57
2018-02-05T18:52:51.573Z,14.20
2018-02-05T18:55:21.085Z,12.40
2018-02-05T18:57:50.782Z,15.97
2018-02-05T19:00:31.591Z,13.83
2018-02-05T19:03:01.143Z,13.13
2018-02-05T19:05:30.449Z,14.70
2018-02-05T19:07:59.976Z,14.30
2018-02-05T19:10:29.626Z,13.27
2018-02-05T19:12:59.274Z,12.20
2018-02-05T19:15:29.256Z,12.10
2018-02-05T19:17:58.598Z,10.67
2018-02-05T19:20:28.230Z,22.00
2018-02-05T19:22:57.493Z,11.57
2018-02-05T19:25:27.531Z,10.53
2018-02-05T19:27:56.925Z,12.70
2018-02-05T19:30:26.504Z,9.70
2018-02-05T19:32:56.020Z,15.13
2018-02-05T19:35:25.547Z,16.97
2018-02-05T19:37:55.694Z,15.80
2018-02-05T19:40:25.287Z,11.67
2018-02-05T19:42:55.305Z,17.27
2018-02-05T19:45:25.151Z,14.63
2018-02-05T19:47:54.872Z,16.27
2018-02-05T19:50:24.297Z,18.70
2018-02-05T19:52:54.174Z,17.23
2018-02-05T19:55:23.854Z,16.07
2018-02-05T19:57:54.376Z,14.90
2018-02-05T20:00:23.677Z,16.57
2018-02-05T20:02:53.396Z,14.60
2018-02-05T20:05:23.459Z,17.83
2018-02-05T20:07:52.946Z,30.07
2018-02-05T20:10:22.783Z,80.17
2018-02-05T20:12:52.063Z,46.90
2018-02-05T20:15:21.946Z,58.67
2018-02-05T20:17:51.384Z,25.73
2018-02-05T20:20:20.950Z,18.40
2018-02-05T20:22:50.485Z,19.53
2018-02-05T20:25:19.736Z,42.43
2018-02-05T20:27:49.155Z,25.87
2018-02-05T20:30:18.519Z,21.87
2018-02-05T20:32:48.749Z,51.57
2018-02-05T20:35:19.014Z,40.63
2018-02-05T20:37:48.597Z,20.53
2018-02-05T20:40:18.523Z,22.27
2018-02-05T20:42:48.672Z,22.47
2018-02-05T20:45:18.043Z,22.73
2018-02-05T20:47:47.927Z,27.67
2018-02-05T20:50:17.275Z,26.83
2018-02-05T20:52:47.086Z,31.63
2018-02-05T20:55:16.892Z,21.80
2018-02-05T20:57:47.638Z,20.80
2018-02-05T21:00:17.576Z,20.23
2018-02-05T21:02:47.164Z,25.33
2018-02-05T21:05:16.601Z,18.80
2018-02-05T21:07:45.833Z,16.50
2018-02-05T21:10:15.367Z,17.30
2018-02-05T21:12:45.144Z,17.13
2018-02-05T21:15:14.724Z,28.13
2018-02-05T21:17:44.503Z,20.83
2018-02-05T21:20:14.744Z,19.20
2018-02-05T21:22:44.310Z,17.83
2018-02-05T21:25:14.368Z,16.67
2018-02-05T21:27:44.495Z,17.80
2018-02-05T21:30:16.898Z,19.40
2018-02-05T21:32:46.174Z,18.37
2018-02-05T21:35:17.092Z,20.07
2018-02-05T21:37:46.748Z,23.87
2018-02-05T21:40:16.213Z,17.27
2018-02-05T21:42:46.480Z,17.63
2018-02-05T21:45:16.016Z,19.53
2018-02-05T21:47:45.262Z,19.30
2018-02-05T21:50:15.426Z,19.97
2018-02-05T21:52:45.313Z,20.93
2018-02-05T21:55:15.525Z,21.03
2018-02-05T21:57:45.429Z,18.77
2018-02-05T22:00:16.498Z,19.80
2018-02-05T22:02:45.800Z,25.37
2018-02-05T22:05:15.108Z,21.57
2018-02-05T22:07:44.804Z,20.33
2018-02-05T22:10:14.948Z,23.57
2018-02-05T22:12:44.247Z,20.57
2018-02-05T22:15:13.843Z,21.43
2018-02-05T22:17:43.460Z,22.53
2018-02-05T22:20:12.857Z,20.13
2018-02-05T22:22:42.896Z,24.13
2018-02-05T22:25:12.253Z,20.47
2018-02-05T22:27:41.800Z,24.23
2018-02-05T22:30:11.387Z,21.33
2018-02-05T22:32:40.781Z,22.03
2018-02-05T22:35:10.024Z,21.77
2018-02-05T22:37:39.417Z,24.43
2018-02-05T22:40:09.117Z,23.40
2018-02-05T22:42:39.042Z,22.73
2018-02-05T22:45:08.968Z,24.97
2018-02-05T22:47:38.719Z,17.60
2018-02-05T22:50:08.111Z,22.23
2018-02-05T22:52:37.497Z,18.67
2018-02-05T22:55:06.859Z,23.20
2018-02-05T22:57:36.418Z,24.93
2018-02-05T23:00:06.709Z,25.53
2018-02-05T23:02:36.247Z,17.57
2018-02-05T23:05:05.769Z,20.40
2018-02-05T23:07:35.265Z,21.90
2018-02-05T23:10:05.014Z,19.70
2018-02-05T23:12:34.456Z,17.20
2018-02-05T23:15:04.156Z,23.60
2018-02-05T23:17:34.559Z,19.37
2018-02-05T23:20:04.769Z,20.00
2018-02-05T23:22:34.346Z,21.57
2018-02-05T23:25:04.059Z,18.73
2018-02-05T23:27:34.076Z,20.57
2018-02-05T23:30:03.950Z,23.30
2018-02-05T23:32:33.211Z,24.27
2018-02-05T23:35:02.501Z,18.27
2018-02-05T23:37:32.418Z,19.13
2018-02-05T23:40:02.446Z,23.23
2018-02-05T23:42:32.289Z,17.00
2018-02-05T23:45:02.311Z,22.87
2018-02-05T23:47:32.001Z,26.43
2018-02-05T23:50:01.861Z,23.53
2018-02-05T23:52:31.599Z,21.23
2018-02-05T23:55:01.364Z,22.90
2018-02-05T23:57:31.018Z,16.60
